TimeEST,TemperatureF,Dew PointF,Humidity,Sea Level PressureIn,VisibilityMPH,Wind Direction,Wind SpeedMPH,Gust SpeedMPH,PrecipitationIn,Events,Conditions,WindDirDegrees,DateUTC
12:15 AM,28.4,26.6,93,30.46,10.0,Calm,Calm,-,N/A,,Unknown,0,2011-11-19 05:15:00
12:35 AM,28.4,26.6,93,30.46,7.0,Calm,Calm,-,N/A,,Unknown,0,2011-11-19 05:35:00
12:55 AM,28.4,26.6,93,30.45,7.0,Calm,Calm,-,N/A,,Unknown,0,2011-11-19 05:55:00
1:15 AM,26.6,26.6,100,30.45,10.0,Calm,Calm,-,N/A,,Unknown,0,2011-11-19 06:15:00
1:35 AM,26.6,26.6,100,30.45,10.0,Calm,Calm,-,N/A,,Unknown,0,2011-11-19 06:35:00
1:55 AM,26.6,24.8,93,30.45,10.0,Calm,Calm,-,N/A,,Unknown,0,2011-11-19 06:55:00
2:15 AM,26.6,24.8,93,30.45,10.0,Calm,Calm,-,N/A,,Unknown,0,2011-11-19 07:15:00
2:35 AM,26.6,24.8,93,30.44,10.0,Calm,Calm,-,N/A,,Unknown,0,2011-11-19 07:35:00
2:55 AM,26.6,24.8,93,30.45,10.0,Calm,Calm,-,N/A,,Unknown,0,2011-11-19 07:55:00
3:15 AM,26.6,24.8,93,30.45,10.0,Calm,Calm,-,N/A,,Unknown,0,2011-11-19 08:15:00
3:35 AM,26.6,24.8,93,30.45,10.0,Calm,Calm,-,N/A,,Unknown,0,2011-11-19 08:35:00
3:55 AM,24.8,23.0,93,30.45,10.0,Calm,Calm,-,N/A,,Unknown,0,2011-11-19 08:55:00
4:15 AM,24.8,23.0,93,30.44,10.0,Calm,Calm,-,N/A,,Unknown,0,2011-11-19 09:15:00
4:35 AM,24.8,23.0,93,30.44,10.0,Calm,Calm,-,N/A,,Unknown,0,2011-11-19 09:35:00
4:55 AM,24.8,23.0,93,30.44,10.0,Calm,Calm,-,N/A,,Unknown,0,2011-11-19 09:55:00
5:15 AM,24.8,23.0,93,30.45,10.0,Calm,Calm,-,N/A,,Unknown,0,2011-11-19 10:15:00
5:35 AM,24.8,24.8,100,30.45,7.0,Calm,Calm,-,N/A,,Unknown,0,2011-11-19 10:35:00
5:55 AM,24.8,23.0,93,30.46,10.0,Calm,Calm,-,N/A,,Unknown,0,2011-11-19 10:55:00
6:15 AM,24.8,23.0,93,30.46,10.0,Calm,Calm,-,N/A,,Unknown,0,2011-11-19 11:15:00
6:35 AM,24.8,23.0,93,30.47,10.0,Calm,Calm,-,N/A,,Unknown,0,2011-11-19 11:35:00
6:55 AM,24.8,23.0,93,30.47,10.0,Calm,Calm,-,N/A,,Unknown,0,2011-11-19 11:55:00
7:15 AM,24.8,23.0,93,30.48,10.0,Calm,Calm,-,N/A,,Unknown,0,2011-11-19 12:15:00
7:35 AM,24.8,23.0,93,30.48,10.0,Calm,Calm,-,N/A,,Unknown,0,2011-11-19 12:35:00
7:55 AM,26.6,24.8,93,30.48,10.0,Calm,Calm,-,N/A,,Unknown,0,2011-11-19 12:55:00
8:15 AM,30.2,28.4,93,30.49,10.0,Calm,Calm,-,N/A,,Unknown,0,2011-11-19 13:15:00
8:35 AM,33.8,30.2,87,30.49,7.0,Calm,Calm,-,N/A,,Unknown,0,2011-11-19 13:35:00
8:55 AM,35.6,26.6,70,30.49,10.0,Calm,Calm,-,N/A,,Unknown,0,2011-11-19 13:55:00
9:15 AM,39.2,28.4,65,30.49,10.0,Calm,Calm,-,N/A,,Unknown,0,2011-11-19 14:15:00
9:35 AM,42.8,28.4,57,30.48,10.0,Calm,Calm,-,N/A,,Unknown,0,2011-11-19 14:35:00
9:55 AM,44.6,24.8,46,30.48,10.0,South,4.6,-,N/A,,Unknown,180,2011-11-19 14:55:00
10:15 AM,46.4,26.6,46,30.48,10.0,SSW,3.5,-,N/A,,Unknown,200,2011-11-19 15:15:00
10:35 AM,48.2,21.2,34,30.48,10.0,SW,3.5,-,N/A,,Unknown,230,2011-11-19 15:35:00
10:55 AM,51.8,19.4,28,30.47,10.0,SW,4.6,-,N/A,,Unknown,230,2011-11-19 15:55:00
11:15 AM,51.8,19.4,28,30.46,10.0,SW,3.5,-,N/A,,Unknown,220,2011-11-19 16:15:00
11:35 AM,53.6,21.2,28,30.45,10.0,SW,5.8,-,N/A,,Unknown,220,2011-11-19 16:35:00
11:55 AM,55.4,24.8,31,30.43,10.0,South,4.6,-,N/A,,Unknown,180,2011-11-19 16:55:00
12:15 PM,55.4,28.4,36,30.42,10.0,South,9.2,-,N/A,,Unknown,170,2011-11-19 17:15:00
12:35 PM,57.2,33.8,41,30.41,10.0,SW,9.2,-,N/A,,Unknown,220,2011-11-19 17:35:00
12:55 PM,57.2,33.8,41,30.40,10.0,South,9.2,-,N/A,,Unknown,170,2011-11-19 17:55:00
1:15 PM,59.0,33.8,39,30.39,10.0,South,9.2,-,N/A,,Unknown,190,2011-11-19 18:15:00
1:35 PM,60.8,33.8,36,30.39,10.0,SSW,6.9,-,N/A,,Unknown,200,2011-11-19 18:35:00
1:55 PM,59.0,33.8,39,30.38,10.0,SSW,5.8,-,N/A,,Unknown,200,2011-11-19 18:55:00
2:15 PM,60.8,35.6,39,30.38,10.0,SSW,6.9,-,N/A,,Unknown,200,2011-11-19 19:15:00
2:35 PM,60.8,35.6,39,30.37,10.0,South,6.9,-,N/A,,Unknown,180,2011-11-19 19:35:00
2:55 PM,60.8,35.6,39,30.37,10.0,SSW,8.1,-,N/A,,Unknown,210,2011-11-19 19:55:00
3:15 PM,60.8,35.6,39,30.36,10.0,South,5.8,-,N/A,,Unknown,170,2011-11-19 20:15:00
3:35 PM,60.8,37.4,42,30.37,10.0,SSW,5.8,-,N/A,,Unknown,200,2011-11-19 20:35:00
3:55 PM,60.8,37.4,42,30.37,10.0,SW,6.9,-,N/A,,Unknown,220,2011-11-19 20:55:00
4:15 PM,59.0,37.4,45,30.36,10.0,SSW,4.6,-,N/A,,Unknown,200,2011-11-19 21:15:00
4:35 PM,59.0,37.4,45,30.36,10.0,South,4.6,-,N/A,,Unknown,190,2011-11-19 21:35:00
4:55 PM,57.2,37.4,48,30.36,10.0,Calm,Calm,-,N/A,,Unknown,0,2011-11-19 21:55:00
5:15 PM,57.2,37.4,48,30.36,10.0,South,4.6,-,N/A,,Unknown,180,2011-11-19 22:15:00
5:35 PM,55.4,37.4,51,30.36,10.0,Calm,Calm,-,N/A,,Unknown,0,2011-11-19 22:35:00
5:55 PM,55.4,37.4,51,30.36,10.0,Calm,Calm,-,N/A,,Unknown,0,2011-11-19 22:55:00
6:15 PM,53.6,37.4,54,30.36,10.0,South,3.5,-,N/A,,Unknown,180,2011-11-19 23:15:00
6:35 PM,53.6,39.2,58,30.36,10.0,Calm,Calm,-,N/A,,Unknown,0,2011-11-19 23:35:00
6:55 PM,53.6,39.2,58,30.36,10.0,SSW,3.5,-,N/A,,Unknown,200,2011-11-19 23:55:00
7:15 PM,53.6,39.2,58,30.36,10.0,Calm,Calm,-,N/A,,Unknown,0,2011-11-20 00:15:00
7:35 PM,51.8,39.2,62,30.36,10.0,Calm,Calm,-,N/A,,Unknown,0,2011-11-20 00:35:00
7:55 PM,50.0,39.2,66,30.35,10.0,Calm,Calm,-,N/A,,Unknown,0,2011-11-20 00:55:00
8:15 PM,51.8,39.2,62,30.36,10.0,Calm,Calm,-,N/A,,Unknown,0,2011-11-20 01:15:00
8:35 PM,48.2,41.0,76,30.37,10.0,Calm,Calm,-,N/A,,Unknown,0,2011-11-20 01:35:00
8:55 PM,48.2,42.8,82,30.36,10.0,Calm,Calm,-,N/A,,Unknown,0,2011-11-20 01:55:00
9:15 PM,48.2,41.0,76,30.36,10.0,Calm,Calm,-,N/A,,Unknown,0,2011-11-20 02:15:00
9:35 PM,46.4,41.0,81,30.36,10.0,Calm,Calm,-,N/A,,Unknown,0,2011-11-20 02:35:00
9:55 PM,48.2,42.8,82,30.37,10.0,Calm,Calm,-,N/A,,Unknown,0,2011-11-20 02:55:00
10:15 PM,50.0,42.8,76,30.36,10.0,Calm,Calm,-,N/A,,Unknown,0,2011-11-20 03:15:00
10:35 PM,48.2,42.8,82,30.37,10.0,Calm,Calm,-,N/A,,Unknown,0,2011-11-20 03:35:00
10:55 PM,50.0,42.8,76,30.37,10.0,Calm,Calm,-,N/A,,Unknown,0,2011-11-20 03:55:00
11:15 PM,50.0,42.8,76,30.37,10.0,Calm,Calm,-,N/A,,Unknown,0,2011-11-20 04:15:00
11:35 PM,48.2,42.8,82,30.36,10.0,Calm,Calm,-,N/A,,Unknown,0,2011-11-20 04:35:00
11:55 PM,48.2,42.8,82,30.36,10.0,Calm,Calm,-,N/A,,Unknown,0,2011-11-20 04:55:00